Terminal Aerodrome Forecast
Issued by NWS Sterling, VA

Home | Current Version | Previous Version | Text Only | Print | Product List | Glossary On
Versions: 1 2 3 4 5 6 7 8 9 10 11 12 13 14 15 16 17 18 19 20 21 22 23 24 25
000
FTUS41 KLWX 211300 AAA
TAFBWI
TAF AMD
KBWI 211301Z 2113/2218 00000KT 4SM BR BKN006
     FM211400 00000KT P6SM SCT015
     FM211700 24006KT P6SM SCT250
     FM211900 23009KT P6SM BKN060
     FM220200 28005KT P6SM BKN060
     FM220800 30012G18KT P6SM BKN250=

USA.gov is the U.S. government's official web portal to all federal, state and local government web resources and services.